sensor_id;sensor_type;location;lat;lon;timestamp;P1;durP1;ratioP1;P2;durP2;ratioP2
11334;SDS011;5722;42.620;23.374;2023-08-24T00:00:39;11.18;;;10.15;;
11334;SDS011;5722;42.620;23.374;2023-08-24T00:03:09;12.02;;;10.82;;
11334;SDS011;5722;42.620;23.374;2023-08-24T00:05:43;12.65;;;11.45;;
11334;SDS011;5722;42.620;23.374;2023-08-24T00:08:11;12.88;;;10.85;;
11334;SDS011;5722;42.620;23.374;2023-08-24T00:10:38;11.80;;;10.68;;
11334;SDS011;5722;42.620;23.374;2023-08-24T00:13:09;12.15;;;11.10;;
11334;SDS011;5722;42.620;23.374;2023-08-24T00:15:38;11.77;;;10.57;;
11334;SDS011;5722;42.620;23.374;2023-08-24T00:18:09;11.48;;;10.10;;
11334;SDS011;5722;42.620;23.374;2023-08-24T00:20:36;12.90;;;11.52;;
11334;SDS011;5722;42.620;23.374;2023-08-24T00:23:03;11.90;;;9.90;;
11334;SDS011;5722;42.620;23.374;2023-08-24T00:25:44;14.88;;;10.68;;
11334;SDS011;5722;42.620;23.374;2023-08-24T00:28:11;11.82;;;10.73;;
11334;SDS011;5722;42.620;23.374;2023-08-24T00:30:40;12.00;;;10.63;;
11334;SDS011;5722;42.620;23.374;2023-08-24T00:35:37;12.27;;;11.00;;
11334;SDS011;5722;42.620;23.374;2023-08-24T00:38:14;11.88;;;10.77;;
11334;SDS011;5722;42.620;23.374;2023-08-24T00:40:45;12.65;;;11.18;;
11334;SDS011;5722;42.620;23.374;2023-08-24T00:43:20;11.88;;;10.80;;
11334;SDS011;5722;42.620;23.374;2023-08-24T00:46:00;12.35;;;11.13;;
11334;SDS011;5722;42.620;23.374;2023-08-24T00:48:28;12.10;;;10.85;;
11334;SDS011;5722;42.620;23.374;2023-08-24T00:51:06;12.77;;;11.57;;
11334;SDS011;5722;42.620;23.374;2023-08-24T00:53:36;12.15;;;10.93;;
11334;SDS011;5722;42.620;23.374;2023-08-24T00:56:05;11.82;;;10.52;;
11334;SDS011;5722;42.620;23.374;2023-08-24T00:58:32;11.55;;;10.55;;
11334;SDS011;5722;42.620;23.374;2023-08-24T01:01:09;12.13;;;11.10;;
11334;SDS011;5722;42.620;23.374;2023-08-24T01:03:39;12.27;;;11.18;;
11334;SDS011;5722;42.620;23.374;2023-08-24T01:06:18;12.45;;;11.35;;
11334;SDS011;5722;42.620;23.374;2023-08-24T01:08:48;12.68;;;11.48;;
11334;SDS011;5722;42.620;23.374;2023-08-24T01:11:16;12.38;;;11.27;;
11334;SDS011;5722;42.620;23.374;2023-08-24T01:13:57;12.38;;;11.27;;
11334;SDS011;5722;42.620;23.374;2023-08-24T01:16:29;12.80;;;11.15;;
11334;SDS011;5722;42.620;23.374;2023-08-24T01:19:00;11.32;;;10.32;;
11334;SDS011;5722;42.620;23.374;2023-08-24T01:21:29;11.68;;;10.68;;
11334;SDS011;5722;42.620;23.374;2023-08-24T01:23:59;10.75;;;9.85;;
11334;SDS011;5722;42.620;23.374;2023-08-24T01:26:37;12.05;;;10.95;;
11334;SDS011;5722;42.620;23.374;2023-08-24T01:29:10;11.82;;;10.82;;
11334;SDS011;5722;42.620;23.374;2023-08-24T01:31:48;11.55;;;10.35;;
11334;SDS011;5722;42.620;23.374;2023-08-24T01:34:25;12.25;;;11.13;;
11334;SDS011;5722;42.620;23.374;2023-08-24T01:36:55;11.70;;;10.60;;
11334;SDS011;5722;42.620;23.374;2023-08-24T01:39:29;12.32;;;10.93;;
11334;SDS011;5722;42.620;23.374;2023-08-24T01:42:00;12.18;;;10.45;;
11334;SDS011;5722;42.620;23.374;2023-08-24T01:44:28;12.00;;;10.55;;
11334;SDS011;5722;42.620;23.374;2023-08-24T01:46:57;11.98;;;10.88;;
11334;SDS011;5722;42.620;23.374;2023-08-24T01:49:27;11.70;;;10.57;;
11334;SDS011;5722;42.620;23.374;2023-08-24T01:51:56;11.68;;;10.68;;
11334;SDS011;5722;42.620;23.374;2023-08-24T01:54:30;12.80;;;11.75;;
11334;SDS011;5722;42.620;23.374;2023-08-24T01:57:05;12.10;;;10.90;;
11334;SDS011;5722;42.620;23.374;2023-08-24T01:59:34;12.43;;;11.13;;
11334;SDS011;5722;42.620;23.374;2023-08-24T02:02:09;12.88;;;11.65;;
11334;SDS011;5722;42.620;23.374;2023-08-24T02:04:38;12.63;;;11.43;;
11334;SDS011;5722;42.620;23.374;2023-08-24T02:07:09;12.02;;;10.98;;
11334;SDS011;5722;42.620;23.374;2023-08-24T02:09:39;12.43;;;11.35;;
11334;SDS011;5722;42.620;23.374;2023-08-24T02:12:17;13.10;;;11.82;;
11334;SDS011;5722;42.620;23.374;2023-08-24T02:14:50;13.05;;;11.80;;
11334;SDS011;5722;42.620;23.374;2023-08-24T02:17:17;12.35;;;11.35;;
11334;SDS011;5722;42.620;23.374;2023-08-24T02:19:51;11.82;;;10.82;;
11334;SDS011;5722;42.620;23.374;2023-08-24T02:22:20;12.40;;;11.30;;
11334;SDS011;5722;42.620;23.374;2023-08-24T02:24:47;12.52;;;11.25;;
11334;SDS011;5722;42.620;23.374;2023-08-24T02:27:16;12.50;;;11.30;;
11334;SDS011;5722;42.620;23.374;2023-08-24T02:29:58;11.98;;;10.93;;
11334;SDS011;5722;42.620;23.374;2023-08-24T02:32:29;12.15;;;11.05;;
11334;SDS011;5722;42.620;23.374;2023-08-24T02:34:57;12.63;;;11.43;;
11334;SDS011;5722;42.620;23.374;2023-08-24T02:39:56;12.73;;;11.60;;
11334;SDS011;5722;42.620;23.374;2023-08-24T02:42:31;12.55;;;11.25;;
11334;SDS011;5722;42.620;23.374;2023-08-24T02:45:08;12.73;;;11.57;;
11334;SDS011;5722;42.620;23.374;2023-08-24T02:47:37;12.13;;;11.02;;
11334;SDS011;5722;42.620;23.374;2023-08-24T02:50:05;11.52;;;10.52;;
11334;SDS011;5722;42.620;23.374;2023-08-24T02:52:35;12.30;;;11.23;;
11334;SDS011;5722;42.620;23.374;2023-08-24T02:55:02;12.63;;;11.43;;
11334;SDS011;5722;42.620;23.374;2023-08-24T02:57:29;13.00;;;11.30;;
11334;SDS011;5722;42.620;23.374;2023-08-24T03:00:09;12.52;;;11.43;;
11334;SDS011;5722;42.620;23.374;2023-08-24T03:02:38;12.80;;;11.55;;
11334;SDS011;5722;42.620;23.374;2023-08-24T03:05:08;12.88;;;11.68;;
11334;SDS011;5722;42.620;23.374;2023-08-24T03:07:39;11.98;;;10.82;;
11334;SDS011;5722;42.620;23.374;2023-08-24T03:10:13;13.55;;;12.15;;
11334;SDS011;5722;42.620;23.374;2023-08-24T03:12:43;13.27;;;11.88;;
11334;SDS011;5722;42.620;23.374;2023-08-24T03:15:13;14.55;;;11.82;;
11334;SDS011;5722;42.620;23.374;2023-08-24T03:20:17;13.10;;;11.70;;
11334;SDS011;5722;42.620;23.374;2023-08-24T03:22:52;13.43;;;12.02;;
11334;SDS011;5722;42.620;23.374;2023-08-24T03:25:26;13.75;;;12.32;;
11334;SDS011;5722;42.620;23.374;2023-08-24T03:27:53;11.82;;;10.70;;
11334;SDS011;5722;42.620;23.374;2023-08-24T03:30:27;14.40;;;12.98;;
11334;SDS011;5722;42.620;23.374;2023-08-24T03:33:00;11.70;;;10.55;;
11334;SDS011;5722;42.620;23.374;2023-08-24T03:35:29;12.82;;;11.18;;
11334;SDS011;5722;42.620;23.374;2023-08-24T03:37:59;13.48;;;12.00;;
11334;SDS011;5722;42.620;23.374;2023-08-24T03:40:30;13.40;;;11.98;;
11334;SDS011;5722;42.620;23.374;2023-08-24T03:43:04;12.63;;;11.32;;
11334;SDS011;5722;42.620;23.374;2023-08-24T03:45:37;13.80;;;12.43;;
11334;SDS011;5722;42.620;23.374;2023-08-24T03:48:04;14.10;;;12.65;;
11334;SDS011;5722;42.620;23.374;2023-08-24T03:50:31;15.20;;;12.57;;
11334;SDS011;5722;42.620;23.374;2023-08-24T03:52:59;15.07;;;13.50;;
11334;SDS011;5722;42.620;23.374;2023-08-24T03:55:26;14.02;;;12.63;;
11334;SDS011;5722;42.620;23.374;2023-08-24T03:57:53;13.38;;;11.93;;
11334;SDS011;5722;42.620;23.374;2023-08-24T04:00:20;13.98;;;12.57;;
11334;SDS011;5722;42.620;23.374;2023-08-24T04:05:37;13.27;;;11.98;;
11334;SDS011;5722;42.620;23.374;2023-08-24T04:08:04;13.80;;;12.63;;
11334;SDS011;5722;42.620;23.374;2023-08-24T04:10:35;16.38;;;12.73;;
11334;SDS011;5722;42.620;23.374;2023-08-24T04:13:02;16.20;;;12.82;;
11334;SDS011;5722;42.620;23.374;2023-08-24T04:15:31;14.20;;;12.88;;
11334;SDS011;5722;42.620;23.374;2023-08-24T04:18:00;13.65;;;12.35;;
11334;SDS011;5722;42.620;23.374;2023-08-24T04:20:26;13.70;;;12.48;;
11334;SDS011;5722;42.620;23.374;2023-08-24T04:23:01;13.70;;;12.48;;
11334;SDS011;5722;42.620;23.374;2023-08-24T04:28:14;13.82;;;12.43;;
11334;SDS011;5722;42.620;23.374;2023-08-24T04:30:49;15.13;;;13.07;;
11334;SDS011;5722;42.620;23.374;2023-08-24T04:33:17;16.85;;;12.88;;
11334;SDS011;5722;42.620;23.374;2023-08-24T04:35:51;13.90;;;12.63;;
11334;SDS011;5722;42.620;23.374;2023-08-24T04:38:19;18.00;;;12.15;;
11334;SDS011;5722;42.620;23.374;2023-08-24T04:40:53;13.15;;;11.95;;
11334;SDS011;5722;42.620;23.374;2023-08-24T04:43:21;13.43;;;12.15;;
11334;SDS011;5722;42.620;23.374;2023-08-24T04:45:52;15.57;;;12.20;;
11334;SDS011;5722;42.620;23.374;2023-08-24T04:48:24;13.00;;;11.77;;
11334;SDS011;5722;42.620;23.374;2023-08-24T04:50:56;13.77;;;12.23;;
11334;SDS011;5722;42.620;23.374;2023-08-24T04:53:25;12.45;;;11.15;;
11334;SDS011;5722;42.620;23.374;2023-08-24T04:55:52;12.32;;;11.13;;
11334;SDS011;5722;42.620;23.374;2023-08-24T04:58:21;13.27;;;12.07;;
11334;SDS011;5722;42.620;23.374;2023-08-24T05:00:49;18.00;;;12.65;;
11334;SDS011;5722;42.620;23.374;2023-08-24T05:03:17;21.88;;;13.60;;
11334;SDS011;5722;42.620;23.374;2023-08-24T05:05:46;27.63;;;13.18;;
11334;SDS011;5722;42.620;23.374;2023-08-24T05:08:16;21.55;;;14.65;;
11334;SDS011;5722;42.620;23.374;2023-08-24T05:10:44;17.75;;;13.35;;
11334;SDS011;5722;42.620;23.374;2023-08-24T05:13:16;23.98;;;14.15;;
11334;SDS011;5722;42.620;23.374;2023-08-24T05:15:48;17.20;;;12.32;;
11334;SDS011;5722;42.620;23.374;2023-08-24T05:18:21;16.27;;;12.52;;
11334;SDS011;5722;42.620;23.374;2023-08-24T05:20:47;16.80;;;12.73;;
11334;SDS011;5722;42.620;23.374;2023-08-24T05:23:15;18.83;;;12.93;;
11334;SDS011;5722;42.620;23.374;2023-08-24T05:25:49;13.40;;;12.10;;
11334;SDS011;5722;42.620;23.374;2023-08-24T05:28:22;15.73;;;11.25;;
11334;SDS011;5722;42.620;23.374;2023-08-24T05:30:50;12.45;;;10.95;;
11334;SDS011;5722;42.620;23.374;2023-08-24T05:33:17;13.32;;;11.93;;
11334;SDS011;5722;42.620;23.374;2023-08-24T05:35:48;21.67;;;11.63;;
11334;SDS011;5722;42.620;23.374;2023-08-24T05:38:26;14.38;;;11.45;;
11334;SDS011;5722;42.620;23.374;2023-08-24T05:40:56;13.00;;;10.85;;
11334;SDS011;5722;42.620;23.374;2023-08-24T05:43:23;16.88;;;11.45;;
11334;SDS011;5722;42.620;23.374;2023-08-24T05:45:49;23.25;;;11.55;;
11334;SDS011;5722;42.620;23.374;2023-08-24T05:48:17;26.80;;;11.65;;
11334;SDS011;5722;42.620;23.374;2023-08-24T05:50:47;21.45;;;11.50;;
11334;SDS011;5722;42.620;23.374;2023-08-24T05:53:15;23.25;;;11.35;;
11334;SDS011;5722;42.620;23.374;2023-08-24T05:55:43;34.63;;;11.88;;
11334;SDS011;5722;42.620;23.374;2023-08-24T05:58:11;26.15;;;11.25;;
11334;SDS011;5722;42.620;23.374;2023-08-24T06:00:38;19.90;;;11.38;;
11334;SDS011;5722;42.620;23.374;2023-08-24T06:03:06;14.88;;;12.20;;
11334;SDS011;5722;42.620;23.374;2023-08-24T06:05:33;20.40;;;12.60;;
11334;SDS011;5722;42.620;23.374;2023-08-24T06:08:01;31.10;;;17.52;;
11334;SDS011;5722;42.620;23.374;2023-08-24T06:10:28;23.80;;;14.68;;
11334;SDS011;5722;42.620;23.374;2023-08-24T06:12:56;21.23;;;16.08;;
11334;SDS011;5722;42.620;23.374;2023-08-24T06:15:27;20.60;;;16.67;;
11334;SDS011;5722;42.620;23.374;2023-08-24T06:17:54;29.83;;;18.55;;
11334;SDS011;5722;42.620;23.374;2023-08-24T06:20:24;22.67;;;17.75;;
11334;SDS011;5722;42.620;23.374;2023-08-24T06:22:51;28.98;;;14.80;;
11334;SDS011;5722;42.620;23.374;2023-08-24T06:25:18;15.80;;;14.15;;
11334;SDS011;5722;42.620;23.374;2023-08-24T06:27:45;29.80;;;18.00;;
11334;SDS011;5722;42.620;23.374;2023-08-24T06:30:12;20.70;;;18.52;;
11334;SDS011;5722;42.620;23.374;2023-08-24T06:32:43;31.00;;;17.88;;
11334;SDS011;5722;42.620;23.374;2023-08-24T06:35:10;22.52;;;17.35;;
11334;SDS011;5722;42.620;23.374;2023-08-24T06:37:40;23.40;;;17.88;;
11334;SDS011;5722;42.620;23.374;2023-08-24T06:40:08;24.08;;;17.33;;
11334;SDS011;5722;42.620;23.374;2023-08-24T06:42:42;25.08;;;17.95;;
11334;SDS011;5722;42.620;23.374;2023-08-24T06:45:22;19.80;;;17.00;;
11334;SDS011;5722;42.620;23.374;2023-08-24T06:47:54;20.45;;;16.98;;
11334;SDS011;5722;42.620;23.374;2023-08-24T06:50:21;20.30;;;16.08;;
11334;SDS011;5722;42.620;23.374;2023-08-24T06:52:48;22.25;;;17.25;;
11334;SDS011;5722;42.620;23.374;2023-08-24T06:55:15;21.63;;;16.23;;
11334;SDS011;5722;42.620;23.374;2023-08-24T06:57:47;19.88;;;17.48;;
11334;SDS011;5722;42.620;23.374;2023-08-24T07:00:18;25.65;;;17.63;;
11334;SDS011;5722;42.620;23.374;2023-08-24T07:02:45;19.35;;;17.23;;
11334;SDS011;5722;42.620;23.374;2023-08-24T07:05:15;22.63;;;17.83;;
11334;SDS011;5722;42.620;23.374;2023-08-24T07:07:44;23.05;;;17.23;;
11334;SDS011;5722;42.620;23.374;2023-08-24T07:10:12;26.52;;;16.75;;
11334;SDS011;5722;42.620;23.374;2023-08-24T07:12:39;23.13;;;17.75;;
11334;SDS011;5722;42.620;23.374;2023-08-24T07:15:12;21.45;;;17.73;;
11334;SDS011;5722;42.620;23.374;2023-08-24T07:17:41;26.67;;;18.17;;
11334;SDS011;5722;42.620;23.374;2023-08-24T07:20:11;18.70;;;16.17;;
11334;SDS011;5722;42.620;23.374;2023-08-24T07:22:54;20.55;;;16.98;;
11334;SDS011;5722;42.620;23.374;2023-08-24T07:25:22;23.80;;;17.10;;
11334;SDS011;5722;42.620;23.374;2023-08-24T07:27:49;20.02;;;15.38;;
11334;SDS011;5722;42.620;23.374;2023-08-24T07:30:22;23.73;;;16.80;;
11334;SDS011;5722;42.620;23.374;2023-08-24T07:32:52;20.48;;;16.20;;
11334;SDS011;5722;42.620;23.374;2023-08-24T07:35:19;27.70;;;15.82;;
11334;SDS011;5722;42.620;23.374;2023-08-24T07:37:51;18.42;;;14.48;;
11334;SDS011;5722;42.620;23.374;2023-08-24T07:43:18;25.20;;;15.02;;
11334;SDS011;5722;42.620;23.374;2023-08-24T07:51:22;27.77;;;14.05;;
11334;SDS011;5722;42.620;23.374;2023-08-24T08:02:31;18.20;;;14.30;;
11334;SDS011;5722;42.620;23.374;2023-08-24T08:04:59;21.20;;;14.50;;
11334;SDS011;5722;42.620;23.374;2023-08-24T08:07:27;21.02;;;13.77;;
11334;SDS011;5722;42.620;23.374;2023-08-24T08:09:54;22.85;;;14.23;;
11334;SDS011;5722;42.620;23.374;2023-08-24T08:12:24;16.35;;;13.05;;
11334;SDS011;5722;42.620;23.374;2023-08-24T08:14:53;21.73;;;13.32;;
11334;SDS011;5722;42.620;23.374;2023-08-24T08:17:20;21.25;;;13.07;;
11334;SDS011;5722;42.620;23.374;2023-08-24T08:22:32;18.23;;;12.52;;
11334;SDS011;5722;42.620;23.374;2023-08-24T08:25:04;15.25;;;12.52;;
11334;SDS011;5722;42.620;23.374;2023-08-24T08:27:31;21.05;;;12.95;;
11334;SDS011;5722;42.620;23.374;2023-08-24T08:30:00;18.40;;;12.73;;
11334;SDS011;5722;42.620;23.374;2023-08-24T08:32:32;14.07;;;12.50;;
11334;SDS011;5722;42.620;23.374;2023-08-24T08:34:59;24.42;;;13.70;;
11334;SDS011;5722;42.620;23.374;2023-08-24T08:37:36;17.63;;;11.68;;
11334;SDS011;5722;42.620;23.374;2023-08-24T08:45:55;13.57;;;12.15;;
11334;SDS011;5722;42.620;23.374;2023-08-24T08:48:22;14.63;;;11.18;;
11334;SDS011;5722;42.620;23.374;2023-08-24T08:50:50;11.82;;;10.43;;
11334;SDS011;5722;42.620;23.374;2023-08-24T08:53:30;12.45;;;10.45;;
11334;SDS011;5722;42.620;23.374;2023-08-24T08:55:56;12.25;;;10.80;;
11334;SDS011;5722;42.620;23.374;2023-08-24T08:58:29;12.82;;;10.68;;
11334;SDS011;5722;42.620;23.374;2023-08-24T09:00:56;15.05;;;10.98;;
11334;SDS011;5722;42.620;23.374;2023-08-24T09:03:28;13.38;;;10.73;;
11334;SDS011;5722;42.620;23.374;2023-08-24T09:05:56;12.45;;;10.25;;
11334;SDS011;5722;42.620;23.374;2023-08-24T09:08:23;12.85;;;11.52;;
11334;SDS011;5722;42.620;23.374;2023-08-24T09:10:56;12.65;;;11.38;;
11334;SDS011;5722;42.620;23.374;2023-08-24T09:13:26;12.50;;;11.30;;
11334;SDS011;5722;42.620;23.374;2023-08-24T09:15:53;13.25;;;11.60;;
11334;SDS011;5722;42.620;23.374;2023-08-24T09:18:20;11.93;;;10.75;;
11334;SDS011;5722;42.620;23.374;2023-08-24T09:20:47;14.27;;;11.60;;
11334;SDS011;5722;42.620;23.374;2023-08-24T09:23:17;14.85;;;11.65;;
11334;SDS011;5722;42.620;23.374;2023-08-24T09:25:46;12.43;;;11.23;;
11334;SDS011;5722;42.620;23.374;2023-08-24T09:28:23;20.45;;;11.98;;
11334;SDS011;5722;42.620;23.374;2023-08-24T09:30:55;12.55;;;10.70;;
11334;SDS011;5722;42.620;23.374;2023-08-24T09:33:22;13.52;;;11.60;;
11334;SDS011;5722;42.620;23.374;2023-08-24T09:35:52;13.52;;;10.85;;
11334;SDS011;5722;42.620;23.374;2023-08-24T09:38:27;14.15;;;11.27;;
11334;SDS011;5722;42.620;23.374;2023-08-24T09:40:55;15.73;;;11.40;;
11334;SDS011;5722;42.620;23.374;2023-08-24T09:43:24;14.07;;;10.82;;
11334;SDS011;5722;42.620;23.374;2023-08-24T09:45:51;15.30;;;11.18;;
11334;SDS011;5722;42.620;23.374;2023-08-24T09:48:18;12.75;;;10.68;;
11334;SDS011;5722;42.620;23.374;2023-08-24T09:50:48;13.13;;;10.73;;
11334;SDS011;5722;42.620;23.374;2023-08-24T09:53:16;13.35;;;10.50;;
11334;SDS011;5722;42.620;23.374;2023-08-24T09:55:44;13.90;;;11.20;;
11334;SDS011;5722;42.620;23.374;2023-08-24T09:58:12;13.05;;;10.20;;
11334;SDS011;5722;42.620;23.374;2023-08-24T10:00:41;11.65;;;10.30;;
11334;SDS011;5722;42.620;23.374;2023-08-24T10:03:06;11.98;;;10.05;;
11334;SDS011;5722;42.620;23.374;2023-08-24T10:05:35;11.35;;;9.93;;
11334;SDS011;5722;42.620;23.374;2023-08-24T10:08:03;10.65;;;9.55;;
11334;SDS011;5722;42.620;23.374;2023-08-24T10:10:30;13.60;;;10.75;;
11334;SDS011;5722;42.620;23.374;2023-08-24T10:13:00;12.60;;;10.25;;
11334;SDS011;5722;42.620;23.374;2023-08-24T10:15:33;12.32;;;10.32;;
11334;SDS011;5722;42.620;23.374;2023-08-24T10:18:06;14.52;;;10.43;;
11334;SDS011;5722;42.620;23.374;2023-08-24T10:20:33;15.23;;;10.60;;
11334;SDS011;5722;42.620;23.374;2023-08-24T10:23:00;16.65;;;9.50;;
11334;SDS011;5722;42.620;23.374;2023-08-24T10:25:27;14.15;;;8.93;;
11334;SDS011;5722;42.620;23.374;2023-08-24T10:27:55;11.80;;;9.60;;
11334;SDS011;5722;42.620;23.374;2023-08-24T10:30:24;10.50;;;9.10;;
11334;SDS011;5722;42.620;23.374;2023-08-24T10:32:53;10.23;;;9.20;;
11334;SDS011;5722;42.620;23.374;2023-08-24T10:35:24;11.43;;;9.85;;
11334;SDS011;5722;42.620;23.374;2023-08-24T10:37:52;10.70;;;9.38;;
11334;SDS011;5722;42.620;23.374;2023-08-24T10:40:30;10.65;;;9.35;;
11334;SDS011;5722;42.620;23.374;2023-08-24T10:42:57;10.18;;;8.77;;
11334;SDS011;5722;42.620;23.374;2023-08-24T10:45:25;10.95;;;9.18;;
11334;SDS011;5722;42.620;23.374;2023-08-24T10:47:56;9.95;;;8.98;;
11334;SDS011;5722;42.620;23.374;2023-08-24T10:50:26;9.85;;;8.70;;
11334;SDS011;5722;42.620;23.374;2023-08-24T10:52:59;9.35;;;8.55;;
11334;SDS011;5722;42.620;23.374;2023-08-24T10:55:40;9.18;;;8.38;;
11334;SDS011;5722;42.620;23.374;2023-08-24T10:58:08;8.77;;;8.00;;
11334;SDS011;5722;42.620;23.374;2023-08-24T11:00:47;11.05;;;8.95;;
11334;SDS011;5722;42.620;23.374;2023-08-24T11:03:18;10.48;;;9.43;;
11334;SDS011;5722;42.620;23.374;2023-08-24T11:05:59;10.55;;;9.15;;
11334;SDS011;5722;42.620;23.374;2023-08-24T11:11:18;9.50;;;8.70;;
11334;SDS011;5722;42.620;23.374;2023-08-24T11:16:38;13.13;;;9.27;;
11334;SDS011;5722;42.620;23.374;2023-08-24T11:19:04;11.20;;;10.05;;
11334;SDS011;5722;42.620;23.374;2023-08-24T11:21:34;16.20;;;9.73;;
11334;SDS011;5722;42.620;23.374;2023-08-24T11:24:01;11.27;;;10.02;;
11334;SDS011;5722;42.620;23.374;2023-08-24T11:26:29;12.02;;;9.95;;
11334;SDS011;5722;42.620;23.374;2023-08-24T11:28:56;36.40;;;11.85;;
11334;SDS011;5722;42.620;23.374;2023-08-24T11:31:24;14.30;;;10.80;;
11334;SDS011;5722;42.620;23.374;2023-08-24T11:33:55;14.93;;;10.38;;
11334;SDS011;5722;42.620;23.374;2023-08-24T11:36:22;17.95;;;10.50;;
11334;SDS011;5722;42.620;23.374;2023-08-24T11:44:15;13.00;;;10.88;;
11334;SDS011;5722;42.620;23.374;2023-08-24T11:46:42;15.43;;;10.35;;
11334;SDS011;5722;42.620;23.374;2023-08-24T11:49:09;13.57;;;11.63;;
11334;SDS011;5722;42.620;23.374;2023-08-24T11:51:36;57.95;;;15.18;;
11334;SDS011;5722;42.620;23.374;2023-08-24T11:54:03;14.85;;;11.98;;
11334;SDS011;5722;42.620;23.374;2023-08-24T11:56:32;16.80;;;11.18;;
11334;SDS011;5722;42.620;23.374;2023-08-24T11:59:02;12.27;;;11.07;;
11334;SDS011;5722;42.620;23.374;2023-08-24T12:01:31;12.43;;;11.10;;
11334;SDS011;5722;42.620;23.374;2023-08-24T12:03:59;12.45;;;11.10;;
11334;SDS011;5722;42.620;23.374;2023-08-24T12:06:27;15.65;;;11.13;;
11334;SDS011;5722;42.620;23.374;2023-08-24T12:08:54;12.73;;;11.32;;
11334;SDS011;5722;42.620;23.374;2023-08-24T12:11:22;21.60;;;11.93;;
11334;SDS011;5722;42.620;23.374;2023-08-24T12:13:51;13.05;;;11.80;;
11334;SDS011;5722;42.620;23.374;2023-08-24T12:16:18;12.43;;;11.13;;
11334;SDS011;5722;42.620;23.374;2023-08-24T12:18:50;27.15;;;13.45;;
11334;SDS011;5722;42.620;23.374;2023-08-24T12:21:22;20.45;;;11.05;;
11334;SDS011;5722;42.620;23.374;2023-08-24T12:23:55;17.13;;;11.52;;
11334;SDS011;5722;42.620;23.374;2023-08-24T12:26:23;19.88;;;11.30;;
11334;SDS011;5722;42.620;23.374;2023-08-24T12:28:50;20.05;;;11.05;;
11334;SDS011;5722;42.620;23.374;2023-08-24T12:31:17;15.18;;;10.60;;
11334;SDS011;5722;42.620;23.374;2023-08-24T12:33:44;13.52;;;10.40;;
11334;SDS011;5722;42.620;23.374;2023-08-24T12:36:15;11.77;;;10.63;;
11334;SDS011;5722;42.620;23.374;2023-08-24T12:38:42;11.57;;;10.38;;
11334;SDS011;5722;42.620;23.374;2023-08-24T12:41:11;13.40;;;9.95;;
11334;SDS011;5722;42.620;23.374;2023-08-24T12:43:44;14.25;;;10.55;;
11334;SDS011;5722;42.620;23.374;2023-08-24T12:46:14;11.85;;;10.27;;
11334;SDS011;5722;42.620;23.374;2023-08-24T12:48:42;12.15;;;10.07;;
11334;SDS011;5722;42.620;23.374;2023-08-24T12:51:09;13.32;;;10.40;;
11334;SDS011;5722;42.620;23.374;2023-08-24T12:53:45;13.07;;;9.70;;
11334;SDS011;5722;42.620;23.374;2023-08-24T12:56:24;10.70;;;9.63;;
11334;SDS011;5722;42.620;23.374;2023-08-24T12:58:52;12.40;;;9.65;;
11334;SDS011;5722;42.620;23.374;2023-08-24T13:01:46;10.50;;;9.38;;
11334;SDS011;5722;42.620;23.374;2023-08-24T13:04:34;12.45;;;9.48;;
11334;SDS011;5722;42.620;23.374;2023-08-24T13:07:05;14.02;;;9.68;;
11334;SDS011;5722;42.620;23.374;2023-08-24T13:09:34;10.68;;;9.77;;
11334;SDS011;5722;42.620;23.374;2023-08-24T13:12:01;11.05;;;10.05;;
11334;SDS011;5722;42.620;23.374;2023-08-24T13:14:28;11.93;;;10.15;;
11334;SDS011;5722;42.620;23.374;2023-08-24T13:16:57;10.82;;;9.73;;
11334;SDS011;5722;42.620;23.374;2023-08-24T13:19:25;10.60;;;9.45;;
11334;SDS011;5722;42.620;23.374;2023-08-24T13:21:51;11.40;;;10.27;;
11334;SDS011;5722;42.620;23.374;2023-08-24T13:24:18;15.23;;;10.52;;
11334;SDS011;5722;42.620;23.374;2023-08-24T13:26:47;13.32;;;10.13;;
11334;SDS011;5722;42.620;23.374;2023-08-24T13:29:14;11.20;;;10.10;;
11334;SDS011;5722;42.620;23.374;2023-08-24T13:31:40;10.02;;;9.23;;
11334;SDS011;5722;42.620;23.374;2023-08-24T13:34:07;11.18;;;10.02;;
11334;SDS011;5722;42.620;23.374;2023-08-24T13:36:34;10.43;;;9.63;;
11334;SDS011;5722;42.620;23.374;2023-08-24T13:39:01;10.68;;;9.68;;
11334;SDS011;5722;42.620;23.374;2023-08-24T13:41:29;10.93;;;9.90;;
11334;SDS011;5722;42.620;23.374;2023-08-24T13:43:57;10.77;;;9.77;;
11334;SDS011;5722;42.620;23.374;2023-08-24T13:46:24;12.68;;;10.32;;
11334;SDS011;5722;42.620;23.374;2023-08-24T13:48:51;11.90;;;9.27;;
11334;SDS011;5722;42.620;23.374;2023-08-24T13:51:17;9.75;;;8.85;;
11334;SDS011;5722;42.620;23.374;2023-08-24T13:53:44;10.88;;;9.88;;
11334;SDS011;5722;42.620;23.374;2023-08-24T13:56:11;10.40;;;9.40;;
11334;SDS011;5722;42.620;23.374;2023-08-24T13:58:38;11.80;;;9.85;;
11334;SDS011;5722;42.620;23.374;2023-08-24T14:01:07;12.15;;;10.25;;
11334;SDS011;5722;42.620;23.374;2023-08-24T14:03:35;10.95;;;9.95;;
11334;SDS011;5722;42.620;23.374;2023-08-24T14:06:02;11.07;;;9.73;;
11334;SDS011;5722;42.620;23.374;2023-08-24T14:08:30;13.82;;;10.40;;
11334;SDS011;5722;42.620;23.374;2023-08-24T14:10:56;11.18;;;10.05;;
11334;SDS011;5722;42.620;23.374;2023-08-24T14:13:23;11.40;;;10.38;;
11334;SDS011;5722;42.620;23.374;2023-08-24T14:15:50;11.45;;;9.90;;
11334;SDS011;5722;42.620;23.374;2023-08-24T14:18:18;13.68;;;10.27;;
11334;SDS011;5722;42.620;23.374;2023-08-24T14:20:49;12.50;;;9.82;;
11334;SDS011;5722;42.620;23.374;2023-08-24T14:23:18;12.25;;;10.38;;
11334;SDS011;5722;42.620;23.374;2023-08-24T14:25:45;10.60;;;9.50;;
11334;SDS011;5722;42.620;23.374;2023-08-24T14:28:13;10.65;;;9.50;;
11334;SDS011;5722;42.620;23.374;2023-08-24T14:30:41;15.73;;;10.98;;
11334;SDS011;5722;42.620;23.374;2023-08-24T14:33:10;17.05;;;10.23;;
11334;SDS011;5722;42.620;23.374;2023-08-24T14:35:38;13.80;;;10.05;;
11334;SDS011;5722;42.620;23.374;2023-08-24T14:38:07;13.90;;;10.60;;
11334;SDS011;5722;42.620;23.374;2023-08-24T14:40:34;12.65;;;10.02;;
11334;SDS011;5722;42.620;23.374;2023-08-24T14:43:01;17.27;;;10.02;;
11334;SDS011;5722;42.620;23.374;2023-08-24T14:45:29;16.17;;;10.10;;
11334;SDS011;5722;42.620;23.374;2023-08-24T14:47:59;10.90;;;9.80;;
11334;SDS011;5722;42.620;23.374;2023-08-24T14:50:26;11.43;;;10.18;;
11334;SDS011;5722;42.620;23.374;2023-08-24T14:52:55;14.57;;;10.43;;
11334;SDS011;5722;42.620;23.374;2023-08-24T14:55:22;12.43;;;9.20;;
11334;SDS011;5722;42.620;23.374;2023-08-24T14:57:48;15.30;;;10.10;;
11334;SDS011;5722;42.620;23.374;2023-08-24T15:00:18;11.68;;;10.50;;
11334;SDS011;5722;42.620;23.374;2023-08-24T15:02:53;15.18;;;9.85;;
11334;SDS011;5722;42.620;23.374;2023-08-24T15:05:21;10.40;;;9.30;;
11334;SDS011;5722;42.620;23.374;2023-08-24T15:07:48;12.25;;;9.45;;
11334;SDS011;5722;42.620;23.374;2023-08-24T15:10:17;10.57;;;9.50;;
11334;SDS011;5722;42.620;23.374;2023-08-24T15:12:45;10.35;;;9.18;;
11334;SDS011;5722;42.620;23.374;2023-08-24T15:15:12;10.18;;;9.15;;
11334;SDS011;5722;42.620;23.374;2023-08-24T15:17:42;12.23;;;10.15;;
11334;SDS011;5722;42.620;23.374;2023-08-24T15:20:09;17.98;;;9.50;;
11334;SDS011;5722;42.620;23.374;2023-08-24T15:22:38;14.85;;;9.30;;
11334;SDS011;5722;42.620;23.374;2023-08-24T15:25:05;15.75;;;9.52;;
11334;SDS011;5722;42.620;23.374;2023-08-24T15:27:33;11.05;;;9.02;;